Belvedere Tiburon, CA

9:17 AM PDT on September 25, 2016 (GMT -0700)
Tiburon,CA | | Change Station
Active Advisory: Heat Advisory

Elev 180 ft 37.88 °N, 122.45 °W | Updated 2 seconds ago

Clear
Clear
66.9 °F
Feels Like 66.9 °F
N
0.0
Wind Variable Wind from NNE
Gusts 0.0 mph

Today
High -- | Low -- °F
--% Chance of Precip.
Yesterday
High -- | Low -- °F
Precip. -- in
Pressure 30.05 in
Visibility 10.0 miles
Clouds Clear
Dew Point 44 °F
Humidity 44%
Rainfall 0.00 in
Snow Depth Not available.
7:00 AM 7:01 PM
Waning Crescent, 26% visible
METAR KOAK 251553Z 28005KT 10SM CLR 27/03 A3005 RMK AO2 SLP174 T02670033
Pressure 30.05 in
Visibility 10.0 miles
Clouds Clear
Dew Point 44 °F
Humidity 44%
Rainfall 0.00 in
Snow Depth Not available.
7:00 AM 7:01 PM
Waning Crescent, 26% visible
METAR KOAK 251553Z 28005KT 10SM CLR 27/03 A3005 RMK AO2 SLP174 T02670033

10-Day Weather Forecast

Almanac

Astronomy

Sep. 25, 2016 Rise Set
Actual Time
Civil Twilight
Nautical Twilight
Astronomical Twilight
Moon
Length of Visible Light
Length of Day
Tomorrow will be .
, % of the Moon is Illuminated

Today's Extremes

State Highs State Lows

Community

WunderPhotos

Upload Photos

1,941,649 photos uploaded!

WunderBlog® & News

Nearby

Air Quality

  Air Quality AQ Index Pollutant
Not available.

Snow Depth

Station Depth Elevation

Earthquake Activity

City Distance Mag. Time & Date
Minimum magnitude displayed is 2.5.

Coastal Water Temperatures

Place Temperature

Stations

Nearby Weather Stations

Station Location Temp. Windchill Dew Point Humidity Wind Precip. Elev Updated Type
                   

Watches & Warnings

Heat Advisory
Issued: 3:45 AM PDT Sep. 25, 2016 – National Weather Service

... Heat advisory remains in effect from 11 am this morning to
8 PM PDT this evening...
... Heat advisory remains in effect from 11 am to 8 PM PDT
Monday...

* temperature... highs will mostly be in the mid 80s to mid 90s
near the coast with mid 90s to 105 for inland areas.

* Location... the entire San Francisco Bay area and entire
Monterey Bay area.

* Timing... hottest days are expected to be Sunday and Monday.
Modest cooling will occur on Tuesday... mainly near the coast.
Much more significant and widespread cooling is forecast to
occur by Wednesday.

* Impacts... the heat will result in elevated health risks for
those who are sensitive to heat.

Precautionary/preparedness actions...

A heat advisory means that a period of hot temperatures is
expected. Hot temperatures will create a situation in which heat
illnesses are possible. Drink plenty of fluids... stay in an air-
conditioned room... stay out of the sun... and check up on relatives
and neighbors. Never leave kids or pets in vehicles as
temperatures can quickly reach very dangerous levels.